createdAt,value
2022-10-27T00:00:44.840Z,733.4
2022-10-27T00:02:28.524Z,734.7
2022-10-27T00:04:12.246Z,734.7
2022-10-27T00:05:55.944Z,738.7
2022-10-27T00:07:39.636Z,738.1
2022-10-27T00:09:23.351Z,734.4
2022-10-27T00:11:07.042Z,738.7
2022-10-27T00:12:50.742Z,739.4
2022-10-27T00:14:34.441Z,738.8
2022-10-27T00:16:18.192Z,738.8
2022-10-27T00:18:01.869Z,738.2
2022-10-27T00:19:45.551Z,737.1
2022-10-27T00:21:29.251Z,738.3
2022-10-27T00:23:12.955Z,737.9
2022-10-27T00:24:56.667Z,736.5
2022-10-27T00:26:40.360Z,734.4
2022-10-27T00:28:24.063Z,730.2
2022-10-27T00:30:07.769Z,725.7
2022-10-27T00:31:51.469Z,724
2022-10-27T00:33:35.164Z,727.8
2022-10-27T00:35:18.866Z,728.1
2022-10-27T00:37:02.568Z,728.4
2022-10-27T00:38:46.302Z,728.2
2022-10-27T00:40:29.977Z,731.6
2022-10-27T00:42:13.670Z,730.3
2022-10-27T00:43:57.376Z,729.7
2022-10-27T00:45:41.087Z,729.8
2022-10-27T00:47:24.779Z,733.8
2022-10-27T00:49:08.484Z,736.1
2022-10-27T00:50:52.194Z,738.3
2022-10-27T00:52:35.891Z,737.8
2022-10-27T00:54:19.605Z,736.8
2022-10-27T00:56:03.296Z,732.6
2022-10-27T00:57:46.999Z,732
2022-10-27T00:59:30.719Z,732.3
2022-10-27T01:01:14.417Z,731.5
2022-10-27T01:02:58.106Z,730.1
2022-10-27T01:04:41.806Z,729.8
2022-10-27T01:06:25.517Z,730.6
2022-10-27T01:08:09.214Z,725
2022-10-27T01:09:52.915Z,723
2022-10-27T01:11:36.627Z,725.4
2022-10-27T01:13:20.319Z,725.2
2022-10-27T01:15:04.022Z,727.3
2022-10-27T01:18:31.429Z,726.9
2022-10-27T01:20:15.144Z,729.1
2022-10-27T01:21:58.840Z,727.9
2022-10-27T01:23:42.533Z,723.7
2022-10-27T01:25:26.237Z,720.9
2022-10-27T01:27:09.941Z,721.4
2022-10-27T01:28:53.642Z,726.5
2022-10-27T01:30:37.359Z,728.8
2022-10-27T01:32:21.056Z,729.4
2022-10-27T01:34:04.757Z,729.1
2022-10-27T01:35:48.475Z,729.6
2022-10-27T01:37:32.187Z,730.9
2022-10-27T01:39:15.883Z,732.8
2022-10-27T01:40:59.571Z,731.9
2022-10-27T01:42:43.277Z,733.2
2022-10-27T01:44:26.967Z,729.9
2022-10-27T01:46:10.682Z,729.4
2022-10-27T01:47:54.374Z,733.3
2022-10-27T01:49:38.082Z,735.7
2022-10-27T01:51:21.780Z,738.4
2022-10-27T01:53:05.484Z,738.3
2022-10-27T01:54:49.192Z,734.8
2022-10-27T01:56:32.888Z,734.1
2022-10-27T01:58:16.589Z,730.4
2022-10-27T02:00:00.302Z,728.4
2022-10-27T02:01:43.995Z,730.5
2022-10-27T02:03:27.703Z,729.4
2022-10-27T02:05:11.403Z,727.6
2022-10-27T02:06:55.108Z,728.4
2022-10-27T02:08:38.807Z,729.5
2022-10-27T02:10:22.523Z,729.9
2022-10-27T02:12:06.209Z,727.7
2022-10-27T02:13:49.916Z,724.8
2022-10-27T02:15:33.615Z,723.2
2022-10-27T02:17:17.322Z,721.1
2022-10-27T02:19:01.023Z,723.8
2022-10-27T02:20:44.729Z,727.4
2022-10-27T02:22:28.435Z,729.2
2022-10-27T02:24:12.133Z,729.9
2022-10-27T02:25:55.837Z,729.3
2022-10-27T02:27:39.538Z,732.2
2022-10-27T02:29:23.242Z,734.8
2022-10-27T02:31:06.940Z,731.5
2022-10-27T02:32:50.633Z,735.4
2022-10-27T02:34:34.341Z,741.3
2022-10-27T02:36:18.051Z,739
2022-10-27T02:38:01.748Z,736.4
2022-10-27T02:39:45.451Z,737.1
2022-10-27T02:41:29.156Z,739.9
2022-10-27T02:43:12.859Z,739.1
2022-10-27T02:44:56.563Z,739.9
2022-10-27T02:46:40.267Z,740
2022-10-27T02:48:23.968Z,738.7
2022-10-27T02:50:07.669Z,738.2
2022-10-27T02:51:51.390Z,739.9
2022-10-27T02:53:35.078Z,742.9
2022-10-27T02:55:18.798Z,740.1
2022-10-27T02:57:02.481Z,739.7
2022-10-27T02:58:46.188Z,735.5
2022-10-27T03:00:29.879Z,731.7
2022-10-27T03:02:13.589Z,734.3
2022-10-27T03:03:57.304Z,736.3
2022-10-27T03:05:40.986Z,737.8
2022-10-27T03:07:24.690Z,740.1
2022-10-27T03:09:08.395Z,738.9
2022-10-27T03:10:52.095Z,737.4
2022-10-27T03:12:35.807Z,735.2
2022-10-27T03:14:19.495Z,735.7
2022-10-27T03:16:03.201Z,739.6
2022-10-27T03:17:46.902Z,743.8
2022-10-27T03:19:30.598Z,742.1
2022-10-27T03:21:14.309Z,743.9
2022-10-27T03:22:58.010Z,743.9
2022-10-27T03:24:41.709Z,746.7
2022-10-27T03:26:25.423Z,748.7
2022-10-27T03:28:09.114Z,748.2
2022-10-27T03:29:52.816Z,744.4
2022-10-27T03:31:36.525Z,742.6
2022-10-27T03:33:20.233Z,742.3
2022-10-27T03:35:03.928Z,742
2022-10-27T03:36:47.632Z,741
2022-10-27T03:38:31.337Z,739.6
2022-10-27T03:40:15.038Z,740.3
2022-10-27T03:41:58.732Z,742.5
2022-10-27T03:43:42.450Z,745
2022-10-27T03:45:26.156Z,741.9
2022-10-27T03:47:09.837Z,742.7
2022-10-27T03:48:53.543Z,740.8
2022-10-27T03:50:37.249Z,742.2
2022-10-27T03:52:20.951Z,742
2022-10-27T03:54:04.671Z,744.1
2022-10-27T03:55:48.353Z,742.6
2022-10-27T03:57:32.056Z,739.3
2022-10-27T03:59:15.760Z,738.9
2022-10-27T04:00:59.474Z,738.2
2022-10-27T04:02:43.162Z,744.7
2022-10-27T04:04:26.866Z,743.8
2022-10-27T04:06:10.563Z,743.7
2022-10-27T04:07:54.274Z,744
2022-10-27T04:09:37.966Z,744.5
2022-10-27T04:11:21.671Z,742.7
2022-10-27T04:13:05.395Z,740.8
2022-10-27T04:14:49.074Z,741.3
2022-10-27T04:16:32.783Z,742.4
2022-10-27T04:18:16.483Z,741.7
2022-10-27T04:20:00.179Z,742
2022-10-27T04:21:43.885Z,745.1
2022-10-27T04:23:27.580Z,745.9
2022-10-27T04:25:11.291Z,747.7
2022-10-27T04:26:55.001Z,747.3
2022-10-27T04:28:38.695Z,746.8
2022-10-27T04:30:22.394Z,749.2
2022-10-27T04:32:06.106Z,750.1
2022-10-27T04:33:49.801Z,753.5
2022-10-27T04:35:33.507Z,756.4
2022-10-27T04:37:17.215Z,751.3
2022-10-27T04:39:00.917Z,749.6
2022-10-27T04:40:44.623Z,746.8
2022-10-27T04:42:28.321Z,750.4
2022-10-27T04:44:12.026Z,750.3
2022-10-27T04:45:55.751Z,749.6
2022-10-27T04:47:39.438Z,750.1
2022-10-27T04:49:23.130Z,749.1
2022-10-27T04:51:06.834Z,744.3
2022-10-27T04:52:50.530Z,741.8
2022-10-27T04:54:34.241Z,742.8
2022-10-27T04:56:17.936Z,743.9
2022-10-27T04:58:01.646Z,746.9
2022-10-27T04:59:45.355Z,746.2
2022-10-27T05:01:29.048Z,920.6
2022-10-27T05:03:12.750Z,1120.9
2022-10-27T05:04:56.454Z,1177.5
2022-10-27T05:06:40.151Z,1126.4
2022-10-27T05:08:23.857Z,1277.7
2022-10-27T05:10:07.559Z,1246.4
2022-10-27T05:11:51.260Z,1169.9
2022-10-27T05:13:34.971Z,1079
2022-10-27T05:15:18.663Z,1071.4
2022-10-27T05:17:02.369Z,1067.1
2022-10-27T05:18:46.071Z,1069.8
2022-10-27T05:20:29.766Z,1067.4
2022-10-27T05:22:13.471Z,1064.5
2022-10-27T05:23:57.165Z,1068.7
2022-10-27T05:25:40.874Z,1063.8
2022-10-27T05:27:24.585Z,1059.6
2022-10-27T05:29:08.271Z,1050.3
2022-10-27T05:30:51.982Z,1296.5
2022-10-27T05:32:35.683Z,1557.1
2022-10-27T05:34:19.378Z,1544.6
2022-10-27T05:36:03.091Z,1487.9
2022-10-27T05:37:46.791Z,1412.6
2022-10-27T05:39:30.495Z,1305.4
2022-10-27T05:41:14.200Z,1284.9
2022-10-27T05:42:57.900Z,1285.5
2022-10-27T05:44:41.594Z,1283.6
2022-10-27T05:46:25.301Z,1281
2022-10-27T05:48:08.996Z,1268.8
2022-10-27T05:49:52.717Z,1251.2
2022-10-27T05:51:36.405Z,1232.6
2022-10-27T05:53:20.122Z,1227.5
2022-10-27T05:55:03.819Z,1217.3
2022-10-27T05:56:47.515Z,1206.2
2022-10-27T05:58:31.214Z,1199.1
2022-10-27T06:00:15.028Z,1197.5
2022-10-27T06:01:58.617Z,1195.1
2022-10-27T06:03:42.331Z,1203
2022-10-27T06:05:26.027Z,1206.4
2022-10-27T06:07:09.725Z,1200.8
2022-10-27T06:08:53.433Z,1196.9
2022-10-27T06:10:37.136Z,1177.5
2022-10-27T06:12:20.833Z,1013
2022-10-27T06:14:04.539Z,1078.7
2022-10-27T06:15:48.235Z,1083.6
2022-10-27T06:17:31.935Z,1086.6
2022-10-27T06:19:15.651Z,1090.2
2022-10-27T06:20:59.340Z,1093.2
2022-10-27T06:22:43.045Z,1089.2
2022-10-27T06:24:26.744Z,1084.5
2022-10-27T06:26:10.484Z,1078.6
2022-10-27T06:27:54.170Z,1077.6
2022-10-27T06:29:37.855Z,1077.8
2022-10-27T06:31:21.566Z,1070.3
2022-10-27T06:33:05.268Z,1064.3
2022-10-27T06:34:48.971Z,1052.7
2022-10-27T06:36:32.680Z,1040.8
2022-10-27T06:38:16.392Z,1022.3
2022-10-27T06:40:00.076Z,1015.2
2022-10-27T06:41:43.784Z,1013
2022-10-27T06:43:27.478Z,1010
2022-10-27T06:45:11.187Z,1011.7
2022-10-27T06:46:54.882Z,1006.7
2022-10-27T06:50:22.302Z,994.5
2022-10-27T06:52:05.992Z,987.8
2022-10-27T06:53:49.700Z,981.1
2022-10-27T06:55:33.401Z,975.3
2022-10-27T06:57:17.095Z,969.6
2022-10-27T06:59:00.806Z,964.4
2022-10-27T07:00:44.503Z,954
2022-10-27T07:02:28.209Z,945.9
2022-10-27T07:04:11.912Z,943
2022-10-27T07:05:55.613Z,937.3
2022-10-27T07:07:39.322Z,934.1
2022-10-27T07:09:23.021Z,932.8
2022-10-27T07:11:06.721Z,922.8
2022-10-27T07:12:50.429Z,910
2022-10-27T07:14:34.120Z,911.2
2022-10-27T07:16:17.823Z,911
2022-10-27T07:18:01.534Z,908
2022-10-27T07:19:45.232Z,905.4
2022-10-27T07:21:28.931Z,901.9
2022-10-27T07:23:12.650Z,898.8
2022-10-27T07:24:56.336Z,894.7
2022-10-27T07:26:40.052Z,893.7
2022-10-27T07:28:23.744Z,884.3
2022-10-27T07:30:07.449Z,879.2
2022-10-27T07:31:51.149Z,872.9
2022-10-27T07:33:34.859Z,871.5
2022-10-27T07:35:18.553Z,865.3
2022-10-27T07:37:02.253Z,858.3
2022-10-27T07:38:45.959Z,849.2
2022-10-27T07:40:29.667Z,844.9
2022-10-27T07:42:13.363Z,837.6
2022-10-27T07:43:57.062Z,831.3
2022-10-27T07:45:40.775Z,821.9
2022-10-27T07:47:24.464Z,819
2022-10-27T07:49:08.167Z,815.9
2022-10-27T07:50:51.868Z,813
2022-10-27T07:52:35.574Z,800.9
2022-10-27T07:54:19.275Z,791.3
2022-10-27T07:57:46.680Z,782.5
2022-10-27T07:59:30.380Z,782.3
2022-10-27T08:01:14.086Z,777.5
2022-10-27T08:02:57.785Z,773.4
2022-10-27T08:04:41.483Z,769.6
2022-10-27T08:06:25.199Z,767.1
2022-10-27T08:08:08.906Z,766.9
2022-10-27T08:09:52.593Z,761.9
2022-10-27T08:11:36.301Z,760.5
2022-10-27T08:13:20.043Z,756.2
2022-10-27T08:15:03.720Z,749
2022-10-27T08:16:47.410Z,739.3
2022-10-27T08:18:31.104Z,738.1
2022-10-27T08:20:14.812Z,736.6
2022-10-27T08:21:58.510Z,734.9
2022-10-27T08:23:42.236Z,733.6
2022-10-27T08:27:09.605Z,727.7
2022-10-27T08:28:53.319Z,725.3
2022-10-27T08:30:37.026Z,724.7
2022-10-27T08:32:20.718Z,719.7
2022-10-27T08:34:04.427Z,718.4
2022-10-27T08:35:48.144Z,718
2022-10-27T08:37:31.830Z,718.4
2022-10-27T08:39:15.532Z,719.4
2022-10-27T08:40:59.239Z,715.8
2022-10-27T08:42:42.941Z,714.6
2022-10-27T08:44:26.669Z,709.9
2022-10-27T08:46:10.350Z,706.1
2022-10-27T08:47:54.043Z,703.4
2022-10-27T08:49:37.776Z,702.4
2022-10-27T08:51:21.441Z,700.8
2022-10-27T08:53:05.175Z,705.8
2022-10-27T08:54:48.851Z,704.3
2022-10-27T08:56:32.566Z,704.8
2022-10-27T08:58:16.263Z,699.3
2022-10-27T08:59:59.973Z,696.4
2022-10-27T09:01:43.660Z,692.9
2022-10-27T09:03:27.370Z,694
2022-10-27T09:05:11.072Z,692.5
2022-10-27T09:06:54.774Z,694.4
2022-10-27T09:08:38.501Z,695.2
2022-10-27T09:10:22.188Z,695.6
2022-10-27T09:12:05.893Z,693.7
2022-10-27T09:13:49.579Z,691.8
2022-10-27T09:15:33.289Z,690.1
2022-10-27T09:17:16.987Z,687.3
2022-10-27T09:19:00.788Z,683.4
2022-10-27T09:20:44.401Z,678.9
2022-10-27T09:22:28.090Z,677.1
2022-10-27T09:24:11.830Z,671.6
2022-10-27T09:25:55.519Z,670.3
2022-10-27T09:27:39.198Z,670.9
2022-10-27T09:29:22.898Z,669.8
2022-10-27T09:31:06.612Z,667.1
2022-10-27T09:32:50.306Z,665
2022-10-27T09:34:34.011Z,665.5
2022-10-27T09:36:17.716Z,663
2022-10-27T09:38:01.415Z,658.5
2022-10-27T09:39:45.118Z,655.7
2022-10-27T09:41:28.817Z,654.9
2022-10-27T09:43:12.520Z,654.8
2022-10-27T09:44:56.235Z,652.9
2022-10-27T09:46:39.925Z,651.9
2022-10-27T09:48:23.631Z,650.9
2022-10-27T09:50:07.330Z,643.2
2022-10-27T09:51:51.030Z,639.3
2022-10-27T09:53:34.742Z,637.5
2022-10-27T09:55:18.437Z,631.9
2022-10-27T09:57:02.137Z,631.5
2022-10-27T09:58:45.848Z,629.2
2022-10-27T10:00:29.547Z,629.2
2022-10-27T10:02:13.250Z,630.4
2022-10-27T10:03:56.946Z,631.6
2022-10-27T10:05:40.675Z,627.5
2022-10-27T10:07:24.359Z,623.1
2022-10-27T10:09:08.051Z,618.7
2022-10-27T10:10:51.813Z,615.8
2022-10-27T10:12:35.470Z,614.3
2022-10-27T10:14:19.163Z,613.4
2022-10-27T10:16:02.870Z,611.8
2022-10-27T10:17:46.567Z,608.3
2022-10-27T10:19:30.279Z,610.1
2022-10-27T10:21:13.977Z,608.7
2022-10-27T10:22:57.673Z,611.4
2022-10-27T10:24:41.377Z,610.7
2022-10-27T10:26:25.084Z,608.9
2022-10-27T10:28:08.801Z,607.5
2022-10-27T10:29:52.507Z,605.6
2022-10-27T10:31:36.190Z,602
2022-10-27T10:33:19.924Z,596.2
2022-10-27T10:35:03.614Z,592.5
2022-10-27T10:36:47.309Z,591.4
2022-10-27T10:38:30.997Z,592.8
2022-10-27T10:40:14.707Z,595.4
2022-10-27T10:41:58.408Z,593.3
2022-10-27T10:43:42.111Z,592.9
2022-10-27T10:45:25.810Z,591.7
2022-10-27T10:47:09.511Z,587.8
2022-10-27T10:48:53.332Z,585.1
2022-10-27T10:50:36.922Z,582.3
2022-10-27T10:52:20.613Z,579
2022-10-27T10:54:04.337Z,578.1
2022-10-27T10:55:48.027Z,576.5
2022-10-27T10:57:31.728Z,577.3
2022-10-27T10:59:15.468Z,580
2022-10-27T11:00:59.129Z,580
2022-10-27T11:02:42.845Z,580.1
2022-10-27T11:04:26.557Z,579.5
2022-10-27T11:06:10.231Z,576
2022-10-27T11:07:53.963Z,575.4
2022-10-27T11:09:37.634Z,574.8
2022-10-27T11:11:21.352Z,571.8
2022-10-27T11:13:05.061Z,566.5
2022-10-27T11:14:48.789Z,563.3
2022-10-27T11:16:32.508Z,563.4
2022-10-27T11:18:16.158Z,563.7
2022-10-27T11:19:59.847Z,564.1
2022-10-27T11:21:43.565Z,563.3
2022-10-27T11:23:27.261Z,566.3
2022-10-27T11:25:11.008Z,567.5
2022-10-27T11:26:54.666Z,565.9
2022-10-27T11:28:38.392Z,564.2
2022-10-27T11:30:22.063Z,563.6
2022-10-27T11:32:05.758Z,561.7
2022-10-27T11:33:49.463Z,559.8
2022-10-27T11:35:33.178Z,560.1
2022-10-27T11:37:16.953Z,555.4
2022-10-27T11:39:00.604Z,553.2
2022-10-27T11:40:44.266Z,546.6
2022-10-27T11:42:27.972Z,543.2
2022-10-27T11:44:11.691Z,548
2022-10-27T11:45:55.379Z,551.2
2022-10-27T11:47:39.088Z,553.5
2022-10-27T11:49:22.827Z,552
2022-10-27T11:51:06.494Z,551
2022-10-27T11:52:50.191Z,550.1
2022-10-27T11:54:33.921Z,554.4
2022-10-27T11:56:17.593Z,553.4
2022-10-27T11:58:01.307Z,547.4
2022-10-27T11:59:44.992Z,545.2
2022-10-27T12:01:28.702Z,545.3
2022-10-27T12:03:12.406Z,544.7
2022-10-27T12:04:56.139Z,547.6
2022-10-27T12:06:39.812Z,549.7
2022-10-27T12:08:23.504Z,544.2
2022-10-27T12:10:07.214Z,538.5
2022-10-27T12:11:50.912Z,534.9
2022-10-27T12:13:34.710Z,536.3
2022-10-27T12:15:18.322Z,540.2
2022-10-27T12:17:02.017Z,539.1
2022-10-27T12:18:45.722Z,540.3
2022-10-27T12:20:29.427Z,539.5
2022-10-27T12:22:13.119Z,537.4
2022-10-27T12:23:56.832Z,534.3
2022-10-27T12:25:40.544Z,535.2
2022-10-27T12:27:24.234Z,533.4
2022-10-27T12:29:07.963Z,531.9
2022-10-27T12:30:51.637Z,528.5
2022-10-27T12:32:35.363Z,529.7
2022-10-27T12:34:19.046Z,530.1
2022-10-27T12:36:02.744Z,529.7
2022-10-27T12:37:46.462Z,525.8
2022-10-27T12:39:30.157Z,519.2
2022-10-27T12:42:57.595Z,520
2022-10-27T12:44:41.286Z,520.8
2022-10-27T12:46:24.983Z,520.7
2022-10-27T12:48:08.663Z,517.6
2022-10-27T12:49:52.373Z,515.8
2022-10-27T12:51:36.123Z,515.5
2022-10-27T12:53:19.792Z,516.3
2022-10-27T12:55:03.472Z,513.7
2022-10-27T12:56:47.181Z,513.1
2022-10-27T12:58:30.898Z,514.5
2022-10-27T13:00:14.576Z,517.2
2022-10-27T13:01:58.281Z,519.3
2022-10-27T13:03:41.977Z,518.3
2022-10-27T13:05:25.688Z,518.6
2022-10-27T13:07:09.392Z,515.9
2022-10-27T13:08:53.082Z,517
2022-10-27T13:10:36.793Z,512.2
2022-10-27T13:12:20.493Z,512.4
2022-10-27T13:14:04.200Z,512.2
2022-10-27T13:15:47.909Z,513.4
2022-10-27T13:17:31.608Z,510
2022-10-27T13:19:15.305Z,510.7
2022-10-27T13:20:59.020Z,510.4
2022-10-27T13:22:42.760Z,510.6
2022-10-27T13:24:26.413Z,512.2
2022-10-27T13:26:10.119Z,510.2
2022-10-27T13:27:53.844Z,510.6
2022-10-27T13:29:37.544Z,511.1
2022-10-27T13:31:21.231Z,509.4
2022-10-27T13:33:04.947Z,509.4
2022-10-27T13:34:48.637Z,506.9
2022-10-27T13:36:32.351Z,503.8
2022-10-27T13:38:16.068Z,497.4
2022-10-27T13:39:59.729Z,497.5
2022-10-27T13:41:43.444Z,501.9
2022-10-27T13:43:27.141Z,499
2022-10-27T13:45:10.840Z,492.2
2022-10-27T13:46:54.539Z,496.7
2022-10-27T13:48:38.249Z,499.5
2022-10-27T13:50:21.941Z,502.2
2022-10-27T13:52:05.655Z,504.4
2022-10-27T13:53:49.348Z,505.9
2022-10-27T13:55:33.058Z,504.9
2022-10-27T13:57:16.760Z,502.3
2022-10-27T13:59:00.455Z,498.4
2022-10-27T14:00:44.178Z,495.1
2022-10-27T14:02:27.876Z,493.3
2022-10-27T14:04:11.586Z,494.9
2022-10-27T14:05:55.266Z,495.3
2022-10-27T14:07:38.971Z,491
2022-10-27T14:09:22.678Z,490.8
2022-10-27T14:11:06.381Z,490.1
2022-10-27T14:12:50.075Z,489.8
2022-10-27T14:14:33.784Z,490.6
2022-10-27T14:16:17.474Z,492.6
2022-10-27T14:18:01.183Z,492.7
2022-10-27T14:19:44.888Z,489.7
2022-10-27T14:21:28.639Z,490.6
2022-10-27T14:23:12.291Z,496.1
2022-10-27T14:24:55.986Z,497.3
2022-10-27T14:26:39.699Z,497.6
2022-10-27T14:28:23.435Z,496.5
2022-10-27T14:30:07.098Z,496.7
2022-10-27T14:31:50.811Z,494.8
2022-10-27T14:33:34.539Z,493.2
2022-10-27T14:35:18.202Z,493.6
2022-10-27T14:37:01.912Z,493.6
2022-10-27T14:38:45.610Z,492.1
2022-10-27T14:40:29.312Z,490.9
2022-10-27T14:42:13.011Z,489
2022-10-27T14:43:56.710Z,488.4
2022-10-27T14:45:40.408Z,486.5
2022-10-27T14:47:24.128Z,486.7
2022-10-27T14:49:07.816Z,488.3
2022-10-27T14:50:51.525Z,484.8
2022-10-27T14:52:35.227Z,485.8
2022-10-27T14:54:18.925Z,484.5
2022-10-27T14:56:02.632Z,483.3
2022-10-27T14:57:46.357Z,482.8
2022-10-27T14:59:30.052Z,482.7
2022-10-27T15:01:13.742Z,481.5
2022-10-27T15:02:57.470Z,480.2
2022-10-27T15:04:41.141Z,483
2022-10-27T15:06:24.837Z,484.8
2022-10-27T15:08:08.578Z,485.1
2022-10-27T15:09:52.257Z,483.4
2022-10-27T15:11:35.941Z,479.2
2022-10-27T15:13:19.666Z,479
2022-10-27T15:15:03.356Z,479.8
2022-10-27T15:16:47.057Z,479.9
2022-10-27T15:18:30.769Z,482.6
2022-10-27T15:20:14.451Z,482.8
2022-10-27T15:21:58.182Z,479.2
2022-10-27T15:23:41.894Z,476.7
2022-10-27T15:25:25.563Z,475.6
2022-10-27T15:27:09.272Z,473.5
2022-10-27T15:28:52.970Z,471.9
2022-10-27T15:30:36.672Z,469.6
2022-10-27T15:32:20.384Z,469.7
2022-10-27T15:34:04.085Z,470.2
2022-10-27T15:35:47.778Z,470.6
2022-10-27T15:37:31.486Z,473.4
2022-10-27T15:39:15.186Z,476.1
2022-10-27T15:42:42.596Z,475.5
2022-10-27T15:44:26.292Z,473.8
2022-10-27T15:46:09.997Z,473.1
2022-10-27T15:47:53.697Z,473.5
2022-10-27T15:49:37.417Z,475.5
2022-10-27T15:51:21.105Z,473.4
2022-10-27T15:53:04.829Z,473.9
2022-10-27T15:54:48.509Z,471.7
2022-10-27T15:56:32.205Z,475.8
2022-10-27T15:58:15.921Z,479
2022-10-27T15:59:59.615Z,476.7
2022-10-27T16:01:43.310Z,475.9
2022-10-27T16:03:27.021Z,474.3
2022-10-27T16:05:10.722Z,473.1
2022-10-27T16:06:54.435Z,473.4
2022-10-27T16:08:38.152Z,472.1
2022-10-27T16:10:21.838Z,470.4
2022-10-27T16:12:05.538Z,470
2022-10-27T16:13:49.245Z,472.1
2022-10-27T16:15:32.938Z,473.4
2022-10-27T16:17:16.644Z,473.6
2022-10-27T16:19:00.339Z,473.8
2022-10-27T16:20:44.050Z,472.7
2022-10-27T16:22:27.754Z,470
2022-10-27T16:24:11.488Z,469
2022-10-27T16:25:55.153Z,466
2022-10-27T16:27:38.859Z,468.6
2022-10-27T16:29:22.568Z,469.2
2022-10-27T16:31:06.261Z,467.8
2022-10-27T16:32:49.964Z,467.5
2022-10-27T16:34:33.664Z,467
2022-10-27T16:36:17.374Z,465.9
2022-10-27T16:38:01.077Z,466.9
2022-10-27T16:39:44.782Z,468.9
2022-10-27T16:41:28.481Z,469.5
2022-10-27T16:43:12.172Z,472.4
2022-10-27T16:44:55.882Z,474.6
2022-10-27T16:46:39.598Z,475.2
2022-10-27T16:48:23.289Z,478.1
2022-10-27T16:50:06.993Z,479.2
2022-10-27T16:51:50.685Z,479.1
2022-10-27T16:53:34.390Z,484
2022-10-27T16:55:18.120Z,485.8
2022-10-27T16:57:01.835Z,484.3
2022-10-27T16:58:45.503Z,483.9
2022-10-27T17:00:29.209Z,484.5
2022-10-27T17:02:12.912Z,485.3
2022-10-27T17:03:56.639Z,484.5
2022-10-27T17:05:40.313Z,481.5
2022-10-27T17:07:24.025Z,481.4
2022-10-27T17:09:07.763Z,482.4
2022-10-27T17:10:51.421Z,480.9
2022-10-27T17:12:35.135Z,482.1
2022-10-27T17:14:18.841Z,482.2
2022-10-27T17:16:02.545Z,481.4
2022-10-27T17:17:46.241Z,484.7
2022-10-27T17:19:29.937Z,483.1
2022-10-27T17:21:13.649Z,484.5
2022-10-27T17:22:57.345Z,490
2022-10-27T17:24:41.039Z,489.4
2022-10-27T17:26:24.747Z,489.2
2022-10-27T17:28:08.453Z,489.8
2022-10-27T17:29:52.153Z,489.8
2022-10-27T17:31:35.855Z,490.7
2022-10-27T17:33:19.555Z,490.9
2022-10-27T17:35:03.300Z,486.1
2022-10-27T17:36:46.963Z,484.8
2022-10-27T17:38:30.667Z,485.6
2022-10-27T17:40:14.363Z,486.8
2022-10-27T17:41:58.074Z,489.6
2022-10-27T17:43:41.824Z,488.5
2022-10-27T17:45:25.472Z,486.2
2022-10-27T17:47:09.178Z,484.7
2022-10-27T17:48:52.880Z,485.1
2022-10-27T17:50:36.586Z,486.4
2022-10-27T17:52:20.272Z,490.1
2022-10-27T17:54:03.977Z,487
2022-10-27T17:55:47.688Z,487
2022-10-27T17:57:31.381Z,485.8
2022-10-27T17:59:15.087Z,487.3
2022-10-27T18:00:58.789Z,487.5
2022-10-27T18:02:42.505Z,496.2
2022-10-27T18:04:26.203Z,499.8
2022-10-27T18:06:09.902Z,500.1
2022-10-27T18:07:53.629Z,502.9
2022-10-27T18:09:37.314Z,503.3
2022-10-27T18:11:21.009Z,500.9
2022-10-27T18:13:04.718Z,498.9
2022-10-27T18:14:48.428Z,500.5
2022-10-27T18:16:32.120Z,501.9
2022-10-27T18:18:15.834Z,504.6
2022-10-27T18:19:59.526Z,502.7
2022-10-27T18:21:43.231Z,502.4
2022-10-27T18:23:26.934Z,502.4
2022-10-27T18:25:10.635Z,498.9
2022-10-27T18:26:54.338Z,500
2022-10-27T18:28:38.039Z,502
2022-10-27T18:30:21.743Z,501.9
2022-10-27T18:32:05.451Z,498
2022-10-27T18:33:49.148Z,498.8
2022-10-27T18:35:32.851Z,501.5
2022-10-27T18:37:16.559Z,502.8
2022-10-27T18:39:00.255Z,505.8
2022-10-27T18:40:43.960Z,504.8
2022-10-27T18:42:27.665Z,503.7
2022-10-27T18:44:11.374Z,501.5
2022-10-27T18:45:55.069Z,501
2022-10-27T18:47:38.825Z,504.5
2022-10-27T18:49:22.472Z,506.1
2022-10-27T18:51:06.271Z,505.8
2022-10-27T18:52:49.872Z,504.8
2022-10-27T18:54:33.590Z,502.1
2022-10-27T18:56:17.276Z,500.2
2022-10-27T18:58:01.012Z,499.3
2022-10-27T18:59:44.689Z,496.3
2022-10-27T19:01:28.382Z,498.3
2022-10-27T19:03:12.095Z,495.9
2022-10-27T19:04:55.803Z,497.3
2022-10-27T19:06:39.489Z,500.7
2022-10-27T19:08:23.208Z,498.5
2022-10-27T19:10:06.896Z,498.5
2022-10-27T19:11:50.655Z,496
2022-10-27T19:13:34.331Z,494.1
2022-10-27T19:15:18.002Z,495.9
2022-10-27T19:17:01.702Z,499.3
2022-10-27T19:18:45.415Z,499.5
2022-10-27T19:20:29.115Z,499.6
2022-10-27T19:22:12.814Z,499
2022-10-27T19:23:56.509Z,500.1
2022-10-27T19:25:40.218Z,500.4
2022-10-27T19:27:23.923Z,499.8
2022-10-27T19:29:07.631Z,501.2
2022-10-27T19:30:51.325Z,502.5
2022-10-27T19:32:35.030Z,499.7
2022-10-27T19:34:18.749Z,497.2
2022-10-27T19:36:02.469Z,495.3
2022-10-27T19:37:46.135Z,492.6
2022-10-27T19:39:29.849Z,495.2
2022-10-27T19:41:13.595Z,498
2022-10-27T19:42:57.255Z,496.9
2022-10-27T19:44:40.953Z,499.5
2022-10-27T19:46:24.659Z,502.4
2022-10-27T19:48:08.351Z,504.8
2022-10-27T19:49:52.063Z,507.1
2022-10-27T19:51:35.757Z,510.4
2022-10-27T19:53:19.462Z,506.7
2022-10-27T19:55:03.175Z,506.8
2022-10-27T19:56:46.911Z,508.8
2022-10-27T19:58:30.572Z,507.1
2022-10-27T20:00:14.281Z,507
2022-10-27T20:01:57.977Z,512.3
2022-10-27T20:03:41.718Z,512.3
2022-10-27T20:05:25.405Z,513.2
2022-10-27T20:07:09.084Z,512.5
2022-10-27T20:08:52.835Z,512.2
2022-10-27T20:10:36.508Z,511.8
2022-10-27T20:12:20.189Z,510.5
2022-10-27T20:14:03.899Z,512.3
2022-10-27T20:15:47.610Z,513.4
2022-10-27T20:17:31.298Z,513.9
2022-10-27T20:19:14.996Z,513.7
2022-10-27T20:20:58.709Z,511.4
2022-10-27T20:22:42.421Z,512.6
2022-10-27T20:24:26.118Z,513.1
2022-10-27T20:26:09.807Z,514.2
2022-10-27T20:27:53.509Z,514.9
2022-10-27T20:29:37.208Z,515.7
2022-10-27T20:31:20.912Z,512.7
2022-10-27T20:33:04.673Z,511.7
2022-10-27T20:34:48.360Z,511
2022-10-27T20:36:32.054Z,510.3
2022-10-27T20:38:15.729Z,509.4
2022-10-27T20:39:59.423Z,509.9
2022-10-27T20:41:43.134Z,509.7
2022-10-27T20:43:26.831Z,512.6
2022-10-27T20:45:10.525Z,514.5
2022-10-27T20:46:54.238Z,513.7
2022-10-27T20:48:37.940Z,511.9
2022-10-27T20:50:21.647Z,513
2022-10-27T20:52:05.394Z,516
2022-10-27T20:53:49.047Z,517.8
2022-10-27T20:55:32.751Z,518.9
2022-10-27T20:57:16.441Z,518
2022-10-27T20:59:00.159Z,519.8
2022-10-27T21:00:43.852Z,522.4
2022-10-27T21:02:27.552Z,521.6
2022-10-27T21:04:11.324Z,517.4
2022-10-27T21:05:54.954Z,516.1
2022-10-27T21:07:38.666Z,519.1
2022-10-27T21:09:22.394Z,519.9
2022-10-27T21:11:06.115Z,521.3
2022-10-27T21:12:49.770Z,520.9
2022-10-27T21:14:33.478Z,520.6
2022-10-27T21:16:17.179Z,519.7
2022-10-27T21:18:00.909Z,519.7
2022-10-27T21:19:44.576Z,521.4
2022-10-27T21:21:28.277Z,520.8
2022-10-27T21:23:11.984Z,520.8
2022-10-27T21:24:55.677Z,523.8
2022-10-27T21:26:39.388Z,526.7
2022-10-27T21:28:23.089Z,526.3
2022-10-27T21:30:06.788Z,526.6
2022-10-27T21:31:50.499Z,528.9
2022-10-27T21:33:34.190Z,530.2
2022-10-27T21:35:17.901Z,531.4
2022-10-27T21:37:01.605Z,530.4
2022-10-27T21:38:45.299Z,535.1
2022-10-27T21:40:29.002Z,535.9
2022-10-27T21:42:12.711Z,538.9
2022-10-27T21:43:56.413Z,542.4
2022-10-27T21:45:40.138Z,541.1
2022-10-27T21:47:23.811Z,545.1
2022-10-27T21:49:07.517Z,546.5
2022-10-27T21:50:51.228Z,549.7
2022-10-27T21:52:34.919Z,556.7
2022-10-27T21:54:18.622Z,559.8
2022-10-27T21:56:02.323Z,559.7
2022-10-27T21:57:46.051Z,560
2022-10-27T21:59:29.735Z,561.2
2022-10-27T22:01:13.431Z,561.6
2022-10-27T22:02:57.134Z,563
2022-10-27T22:04:40.861Z,566.1
2022-10-27T22:06:24.567Z,568.6
2022-10-27T22:08:08.240Z,569.4
2022-10-27T22:09:51.952Z,571.4
2022-10-27T22:11:35.650Z,571
2022-10-27T22:13:19.477Z,572.2
2022-10-27T22:15:03.058Z,574.4
2022-10-27T22:16:46.764Z,575.5
2022-10-27T22:18:30.455Z,578.8
2022-10-27T22:20:14.150Z,579.1
2022-10-27T22:21:57.875Z,580
2022-10-27T22:23:41.561Z,584
2022-10-27T22:25:25.264Z,585.3
2022-10-27T22:27:08.970Z,585.5
2022-10-27T22:28:52.660Z,587.1
2022-10-27T22:30:36.375Z,585.9